DLH3KK EDDF-EDDN
Flight info
| Callsign | DLH3KK |
|---|---|
| Flight time | 0h 32m |
| Altitude | 23000 |
| Route | CINDY8S/18 CINDY Z74 HAREM T104 DKB N869 LETKU LETKU1T |
| Aircraft | A320/M-SDE2E3FGIJ1LORWXYZ/HB1 |
Departure
| Time | 2026-04-15 15:54 |
|---|---|
| Airport | Frankfurt Main Airport (EDDF) |
Arrival
| Time | 2026-04-15 16:26 |
|---|---|
| Airport | Nuremberg Airport (EDDN) |
| Time | Latitude | Longitude | Altitude | Speed | Heading |
|---|---|---|---|---|---|
| 2026-04-15 15:20 | 50.04403 | 8.56222 | 356 ft | 0 kts | 159° |
| 2026-04-15 15:43 | 50.04413 | 8.56216 | 362 ft | 4 kts | 161° |
| 2026-04-15 15:44 | 50.04439 | 8.56204 | 361 ft | 4 kts | 171° |
| 2026-04-15 15:44 | 50.04465 | 8.56203 | 360 ft | 4 kts | 205° |
| 2026-04-15 15:44 | 50.04477 | 8.56217 | 363 ft | 0 kts | 250° |
| 2026-04-15 15:44 | 50.04469 | 8.56183 | 362 ft | 4 kts | 250° |
| 2026-04-15 15:45 | 50.04459 | 8.56144 | 358 ft | 4 kts | 250° |
| 2026-04-15 15:45 | 50.04453 | 8.56118 | 359 ft | 0 kts | 249° |
| 2026-04-15 15:47 | 50.04453 | 8.56117 | 358 ft | 1 kts | 249° |
| 2026-04-15 15:48 | 50.04445 | 8.56085 | 356 ft | 6 kts | 246° |
| 2026-04-15 15:48 | 50.04406 | 8.56030 | 358 ft | 10 kts | 196° |
| 2026-04-15 15:48 | 50.04338 | 8.56058 | 362 ft | 11 kts | 161° |
| 2026-04-15 15:48 | 50.04263 | 8.56028 | 357 ft | 14 kts | 239° |
| 2026-04-15 15:49 | 50.04226 | 8.55882 | 357 ft | 15 kts | 249° |
| 2026-04-15 15:49 | 50.04186 | 8.55715 | 358 ft | 18 kts | 249° |
| 2026-04-15 15:49 | 50.04139 | 8.55524 | 357 ft | 20 kts | 251° |
| 2026-04-15 15:49 | 50.04090 | 8.55315 | 355 ft | 21 kts | 250° |
| 2026-04-15 15:50 | 50.04037 | 8.55096 | 360 ft | 23 kts | 249° |
| 2026-04-15 15:50 | 50.03980 | 8.54857 | 360 ft | 25 kts | 250° |
| 2026-04-15 15:50 | 50.03922 | 8.54614 | 356 ft | 20 kts | 250° |
| 2026-04-15 15:50 | 50.03876 | 8.54424 | 354 ft | 19 kts | 249° |
| 2026-04-15 15:51 | 50.03810 | 8.54255 | 348 ft | 19 kts | 241° |
| 2026-04-15 15:51 | 50.03760 | 8.54053 | 349 ft | 21 kts | 250° |
| 2026-04-15 15:51 | 50.03705 | 8.53826 | 347 ft | 24 kts | 250° |
| 2026-04-15 15:51 | 50.03644 | 8.53578 | 337 ft | 25 kts | 249° |
| 2026-04-15 15:52 | 50.03587 | 8.53345 | 338 ft | 22 kts | 250° |
| 2026-04-15 15:52 | 50.03532 | 8.53115 | 335 ft | 24 kts | 249° |
| 2026-04-15 15:52 | 50.03473 | 8.52880 | 335 ft | 20 kts | 247° |
| 2026-04-15 15:52 | 50.03421 | 8.52676 | 335 ft | 19 kts | 248° |
| 2026-04-15 15:53 | 50.03364 | 8.52596 | 334 ft | 8 kts | 186° |
| 2026-04-15 15:53 | 50.03350 | 8.52595 | 335 ft | 0 kts | 180° |
| 2026-04-15 15:53 | 50.03348 | 8.52595 | 335 ft | 2 kts | 180° |
| 2026-04-15 15:54 | 50.03148 | 8.52596 | 334 ft | 66 kts | 179° |
| 2026-04-15 15:54 | 50.02465 | 8.52603 | 335 ft | 128 kts | 179° |
| 2026-04-15 15:54 | 50.01404 | 8.52612 | 411 ft | 169 kts | 179° |
| 2026-04-15 15:54 | 50.00213 | 8.52617 | 1052 ft | 173 kts | 179° |
| 2026-04-15 15:55 | 49.98986 | 8.52623 | 1761 ft | 182 kts | 180° |
| 2026-04-15 15:55 | 49.97657 | 8.52770 | 2112 ft | 204 kts | 166° |
| 2026-04-15 15:55 | 49.96359 | 8.53890 | 2557 ft | 224 kts | 135° |
| 2026-04-15 15:55 | 49.95475 | 8.55896 | 3418 ft | 227 kts | 120° |
| 2026-04-15 15:56 | 49.94955 | 8.57340 | 4003 ft | 229 kts | 120° |
| 2026-04-15 15:56 | 49.94106 | 8.60361 | 5156 ft | 236 kts | 103° |
| 2026-04-15 15:56 | 49.93933 | 8.63030 | 5604 ft | 260 kts | 94° |
| 2026-04-15 15:56 | 49.93814 | 8.65901 | 6327 ft | 271 kts | 98° |
| 2026-04-15 15:57 | 49.93291 | 8.68729 | 7151 ft | 276 kts | 117° |
| 2026-04-15 15:57 | 49.92178 | 8.71158 | 7962 ft | 279 kts | 137° |
| 2026-04-15 15:57 | 49.90634 | 8.73012 | 8811 ft | 283 kts | 146° |
| 2026-04-15 15:57 | 49.89057 | 8.74886 | 9636 ft | 290 kts | 138° |
| 2026-04-15 15:58 | 49.87762 | 8.77315 | 10404 ft | 298 kts | 123° |
| 2026-04-15 15:58 | 49.86683 | 8.80211 | 10726 ft | 322 kts | 121° |
| 2026-04-15 15:58 | 49.85564 | 8.83314 | 11172 ft | 336 kts | 120° |
| 2026-04-15 15:58 | 49.84795 | 8.85469 | 11645 ft | 339 kts | 120° |
| 2026-04-15 15:59 | 49.83268 | 8.89737 | 12683 ft | 345 kts | 120° |
| 2026-04-15 15:59 | 49.82492 | 8.91891 | 13195 ft | 347 kts | 120° |
| 2026-04-15 15:59 | 49.81289 | 8.95218 | 13966 ft | 351 kts | 121° |
| 2026-04-15 15:59 | 49.80083 | 8.98535 | 14640 ft | 355 kts | 121° |
| 2026-04-15 16:00 | 49.78860 | 9.01884 | 15295 ft | 360 kts | 121° |
| 2026-04-15 16:00 | 49.77624 | 9.05271 | 15937 ft | 364 kts | 121° |
| 2026-04-15 16:00 | 49.76444 | 9.08766 | 16598 ft | 369 kts | 114° |
| 2026-04-15 16:00 | 49.75657 | 9.12567 | 17230 ft | 374 kts | 104° |
| 2026-04-15 16:01 | 49.74927 | 9.16443 | 17849 ft | 378 kts | 112° |
| 2026-04-15 16:01 | 49.73758 | 9.20032 | 18456 ft | 381 kts | 124° |
| 2026-04-15 16:01 | 49.72143 | 9.23286 | 19014 ft | 383 kts | 133° |
| 2026-04-15 16:01 | 49.70376 | 9.26384 | 19586 ft | 386 kts | 133° |
| 2026-04-15 16:02 | 49.68596 | 9.29513 | 20152 ft | 389 kts | 133° |
| 2026-04-15 16:02 | 49.66802 | 9.32673 | 20718 ft | 393 kts | 133° |
| 2026-04-15 16:02 | 49.64995 | 9.35858 | 21280 ft | 396 kts | 132° |
| 2026-04-15 16:02 | 49.63149 | 9.39113 | 21842 ft | 399 kts | 132° |
| 2026-04-15 16:03 | 49.61313 | 9.42348 | 22395 ft | 403 kts | 132° |
| 2026-04-15 16:03 | 49.59460 | 9.45611 | 22934 ft | 406 kts | 132° |
| 2026-04-15 16:03 | 49.57589 | 9.48901 | 23163 ft | 408 kts | 132° |
| 2026-04-15 16:03 | 49.55744 | 9.52137 | 23216 ft | 394 kts | 132° |
| 2026-04-15 16:04 | 49.53956 | 9.55264 | 23210 ft | 386 kts | 132° |
| 2026-04-15 16:04 | 49.52191 | 9.58357 | 23214 ft | 383 kts | 132° |
| 2026-04-15 16:04 | 49.50433 | 9.61441 | 23212 ft | 383 kts | 132° |
| 2026-04-15 16:04 | 49.48677 | 9.64518 | 23221 ft | 383 kts | 132° |
| 2026-04-15 16:05 | 49.46917 | 9.67587 | 23215 ft | 383 kts | 132° |
| 2026-04-15 16:05 | 49.45160 | 9.70656 | 23216 ft | 383 kts | 132° |
| 2026-04-15 16:05 | 49.43403 | 9.73725 | 23219 ft | 383 kts | 132° |
| 2026-04-15 16:05 | 49.41669 | 9.76743 | 23082 ft | 379 kts | 132° |
| 2026-04-15 16:06 | 49.39924 | 9.79780 | 22808 ft | 370 kts | 132° |
| 2026-04-15 16:06 | 49.38231 | 9.82710 | 22457 ft | 365 kts | 132° |
| 2026-04-15 16:06 | 49.36554 | 9.85613 | 22011 ft | 363 kts | 133° |
| 2026-04-15 16:06 | 49.34880 | 9.88495 | 21581 ft | 361 kts | 133° |
| 2026-04-15 16:07 | 49.33212 | 9.91361 | 21143 ft | 359 kts | 133° |
| 2026-04-15 16:07 | 49.31552 | 9.94215 | 20722 ft | 358 kts | 133° |
| 2026-04-15 16:07 | 49.28255 | 9.99874 | 19883 ft | 354 kts | 133° |
| 2026-04-15 16:08 | 49.26624 | 10.02689 | 19472 ft | 353 kts | 133° |
| 2026-04-15 16:08 | 49.25018 | 10.05449 | 19075 ft | 351 kts | 133° |
| 2026-04-15 16:08 | 49.23393 | 10.08232 | 18674 ft | 350 kts | 133° |
| 2026-04-15 16:08 | 49.21756 | 10.11033 | 18242 ft | 348 kts | 133° |
| 2026-04-15 16:09 | 49.20164 | 10.13754 | 17753 ft | 348 kts | 133° |
| 2026-04-15 16:09 | 49.18548 | 10.16516 | 17253 ft | 349 kts | 133° |
| 2026-04-15 16:09 | 49.17064 | 10.19435 | 16763 ft | 349 kts | 118° |
| 2026-04-15 16:09 | 49.16390 | 10.22963 | 16315 ft | 348 kts | 92° |
| 2026-04-15 16:10 | 49.16746 | 10.26590 | 15871 ft | 347 kts | 68° |
| 2026-04-15 16:10 | 49.18034 | 10.29653 | 15442 ft | 343 kts | 46° |
| 2026-04-15 16:10 | 49.19694 | 10.32265 | 15070 ft | 341 kts | 44° |
| 2026-04-15 16:10 | 49.21372 | 10.34863 | 14583 ft | 336 kts | 44° |
| 2026-04-15 16:11 | 49.22970 | 10.37328 | 14172 ft | 329 kts | 44° |
| 2026-04-15 16:11 | 49.24586 | 10.39817 | 13737 ft | 329 kts | 44° |
| 2026-04-15 16:11 | 49.26198 | 10.42278 | 13343 ft | 326 kts | 44° |
| 2026-04-15 16:11 | 49.27803 | 10.44719 | 12943 ft | 324 kts | 44° |
| 2026-04-15 16:12 | 49.29395 | 10.47140 | 12565 ft | 322 kts | 44° |
| 2026-04-15 16:12 | 49.30978 | 10.49556 | 12179 ft | 320 kts | 44° |
| 2026-04-15 16:12 | 49.32547 | 10.51958 | 11781 ft | 318 kts | 44° |
| 2026-04-15 16:12 | 49.34110 | 10.54352 | 11394 ft | 317 kts | 44° |
| 2026-04-15 16:13 | 49.35660 | 10.56730 | 11067 ft | 312 kts | 44° |
| 2026-04-15 16:13 | 49.37167 | 10.59067 | 10879 ft | 304 kts | 45° |
| 2026-04-15 16:13 | 49.38636 | 10.61357 | 10675 ft | 299 kts | 45° |
| 2026-04-15 16:13 | 49.40059 | 10.63572 | 10476 ft | 297 kts | 45° |
| 2026-04-15 16:14 | 49.41484 | 10.65857 | 10262 ft | 296 kts | 50° |
| 2026-04-15 16:14 | 49.42543 | 10.68547 | 10054 ft | 294 kts | 68° |
| 2026-04-15 16:14 | 49.43055 | 10.71575 | 9834 ft | 293 kts | 84° |
| 2026-04-15 16:14 | 49.42992 | 10.74689 | 9630 ft | 292 kts | 99° |
| 2026-04-15 16:15 | 49.42688 | 10.77771 | 9416 ft | 291 kts | 99° |
| 2026-04-15 16:15 | 49.42392 | 10.80838 | 9218 ft | 290 kts | 99° |
| 2026-04-15 16:15 | 49.42098 | 10.83893 | 9021 ft | 288 kts | 99° |
| 2026-04-15 16:15 | 49.41802 | 10.86934 | 8828 ft | 287 kts | 99° |
| 2026-04-15 16:16 | 49.41507 | 10.89972 | 8481 ft | 287 kts | 99° |
| 2026-04-15 16:16 | 49.41218 | 10.92980 | 8235 ft | 283 kts | 99° |
| 2026-04-15 16:16 | 49.40929 | 10.95961 | 8038 ft | 282 kts | 99° |
| 2026-04-15 16:16 | 49.40640 | 10.98928 | 7849 ft | 280 kts | 99° |
| 2026-04-15 16:17 | 49.40350 | 11.01880 | 7658 ft | 279 kts | 99° |
| 2026-04-15 16:17 | 49.40062 | 11.04803 | 7312 ft | 276 kts | 99° |
| 2026-04-15 16:17 | 49.39776 | 11.07704 | 6965 ft | 274 kts | 99° |
| 2026-04-15 16:17 | 49.39492 | 11.10583 | 6650 ft | 272 kts | 99° |
| 2026-04-15 16:18 | 49.39210 | 11.13435 | 6332 ft | 268 kts | 99° |
| 2026-04-15 16:18 | 49.38932 | 11.16256 | 6069 ft | 268 kts | 99° |
| 2026-04-15 16:18 | 49.38650 | 11.19083 | 5816 ft | 267 kts | 99° |
| 2026-04-15 16:18 | 49.38371 | 11.21864 | 5556 ft | 260 kts | 99° |
| 2026-04-15 16:19 | 49.38099 | 11.24565 | 5307 ft | 253 kts | 99° |
| 2026-04-15 16:19 | 49.37833 | 11.27198 | 5056 ft | 246 kts | 98° |
| 2026-04-15 16:19 | 49.37575 | 11.29777 | 4795 ft | 243 kts | 98° |
| 2026-04-15 16:19 | 49.37412 | 11.32338 | 4641 ft | 241 kts | 83° |
| 2026-04-15 16:20 | 49.38097 | 11.34622 | 4512 ft | 239 kts | 44° |
| 2026-04-15 16:20 | 49.39452 | 11.36069 | 4383 ft | 234 kts | 30° |
| 2026-04-15 16:20 | 49.40875 | 11.37229 | 4252 ft | 231 kts | 27° |
| 2026-04-15 16:20 | 49.42310 | 11.38314 | 4134 ft | 228 kts | 26° |
| 2026-04-15 16:21 | 49.43705 | 11.39357 | 4030 ft | 218 kts | 25° |
| 2026-04-15 16:21 | 49.45128 | 11.39798 | 3991 ft | 205 kts | 351° |
| 2026-04-15 16:21 | 49.46369 | 11.38847 | 4005 ft | 202 kts | 313° |
| 2026-04-15 16:21 | 49.46971 | 11.36932 | 4014 ft | 202 kts | 281° |
| 2026-04-15 16:22 | 49.47176 | 11.34880 | 4040 ft | 189 kts | 279° |
| 2026-04-15 16:22 | 49.47367 | 11.32914 | 4004 ft | 184 kts | 279° |
| 2026-04-15 16:22 | 49.47560 | 11.30974 | 3842 ft | 182 kts | 279° |
| 2026-04-15 16:22 | 49.47752 | 11.29058 | 3626 ft | 180 kts | 280° |
| 2026-04-15 16:23 | 49.47940 | 11.27180 | 3394 ft | 174 kts | 279° |
| 2026-04-15 16:23 | 49.48124 | 11.25351 | 3168 ft | 172 kts | 280° |
| 2026-04-15 16:23 | 49.48301 | 11.23578 | 2938 ft | 161 kts | 280° |
| 2026-04-15 16:23 | 49.48464 | 11.21952 | 2748 ft | 149 kts | 281° |
| 2026-04-15 16:24 | 49.48619 | 11.20401 | 2536 ft | 145 kts | 280° |
| 2026-04-15 16:24 | 49.48770 | 11.18883 | 2342 ft | 143 kts | 280° |
| 2026-04-15 16:24 | 49.48920 | 11.17380 | 2141 ft | 142 kts | 279° |
| 2026-04-15 16:24 | 49.49069 | 11.15884 | 1918 ft | 141 kts | 278° |
| 2026-04-15 16:25 | 49.49216 | 11.14403 | 1725 ft | 140 kts | 277° |
| 2026-04-15 16:25 | 49.49362 | 11.12931 | 1525 ft | 139 kts | 277° |
| 2026-04-15 16:25 | 49.49506 | 11.11462 | 1333 ft | 138 kts | 277° |
| 2026-04-15 16:25 | 49.49652 | 11.10009 | 1154 ft | 137 kts | 277° |
| 2026-04-15 16:26 | 49.49789 | 11.08592 | 1038 ft | 124 kts | 279° |
| 2026-04-15 16:26 | 49.49894 | 11.07558 | 1026 ft | 74 kts | 278° |
| 2026-04-15 16:26 | 49.49963 | 11.06871 | 1021 ft | 56 kts | 277° |
| 2026-04-15 16:26 | 49.49981 | 11.06532 | 1024 ft | 14 kts | 251° |
| 2026-04-15 16:27 | 49.49894 | 11.06488 | 1022 ft | 13 kts | 160° |
| 2026-04-15 16:27 | 49.49854 | 11.06512 | 1021 ft | 3 kts | 158° |
| 2026-04-15 16:27 | 49.49848 | 11.06516 | 1021 ft | 0 kts | 158° |
| 2026-04-15 16:27 | 49.49845 | 11.06518 | 1021 ft | 1 kts | 158° |
| 2026-04-15 16:28 | 49.49839 | 11.06521 | 1021 ft | 1 kts | 158° |
| 2026-04-15 16:28 | 49.49829 | 11.06528 | 1021 ft | 4 kts | 154° |
| 2026-04-15 16:28 | 49.49801 | 11.06577 | 1020 ft | 9 kts | 116° |
| 2026-04-15 16:28 | 49.49787 | 11.06692 | 1020 ft | 13 kts | 99° |
| 2026-04-15 16:29 | 49.49772 | 11.06838 | 1020 ft | 14 kts | 98° |
| 2026-04-15 16:29 | 49.49759 | 11.06977 | 1021 ft | 12 kts | 98° |
| 2026-04-15 16:29 | 49.49747 | 11.07096 | 1021 ft | 10 kts | 99° |
| 2026-04-15 16:29 | 49.49737 | 11.07190 | 1022 ft | 8 kts | 106° |
| 2026-04-15 16:30 | 49.49693 | 11.07232 | 1023 ft | 9 kts | 183° |
| 2026-04-15 16:30 | 49.49641 | 11.07256 | 1023 ft | 7 kts | 122° |
| 2026-04-15 16:30 | 49.49631 | 11.07318 | 1025 ft | 5 kts | 99° |
| 2026-04-15 16:30 | 49.49623 | 11.07394 | 1025 ft | 8 kts | 98° |
| 2026-04-15 16:31 | 49.49615 | 11.07476 | 1021 ft | 7 kts | 99° |
| 2026-04-15 16:31 | 49.49593 | 11.07525 | 1024 ft | 5 kts | 162° |
| 2026-04-15 16:31 | 49.49567 | 11.07522 | 1026 ft | 3 kts | 188° |
| 2026-04-15 16:31 | 49.49556 | 11.07520 | 1026 ft | 1 kts | 188° |
| 2026-04-15 16:32 | 49.49551 | 11.07518 | 1026 ft | 1 kts | 188° |
| 2026-04-15 16:32 | 49.49548 | 11.07518 | 1026 ft | 1 kts | 188° |
| 2026-04-15 16:32 | 49.49542 | 11.07517 | 1026 ft | 0 kts | 188° |